sensor_id;sensor_type;location;lat;lon;timestamp;P1;durP1;ratioP1;P2;durP2;ratioP2
74293;SDS011;64044;59.904;10.738;2023-07-29T00:01:51;5.07;;;2.60;;
74293;SDS011;64044;59.904;10.738;2023-07-29T00:04:18;6.35;;;2.50;;
74293;SDS011;64044;59.904;10.738;2023-07-29T00:06:45;8.40;;;2.33;;
74293;SDS011;64044;59.904;10.738;2023-07-29T00:09:11;3.35;;;2.10;;
74293;SDS011;64044;59.904;10.738;2023-07-29T00:11:37;4.13;;;2.35;;
74293;SDS011;64044;59.904;10.738;2023-07-29T00:14:03;3.58;;;2.50;;
74293;SDS011;64044;59.904;10.738;2023-07-29T00:16:28;4.93;;;2.40;;
74293;SDS011;64044;59.904;10.738;2023-07-29T00:18:54;5.20;;;2.45;;
74293;SDS011;64044;59.904;10.738;2023-07-29T00:21:20;4.07;;;2.60;;
74293;SDS011;64044;59.904;10.738;2023-07-29T00:23:45;3.00;;;2.15;;
74293;SDS011;64044;59.904;10.738;2023-07-29T00:26:11;4.35;;;2.35;;
74293;SDS011;64044;59.904;10.738;2023-07-29T00:28:37;3.38;;;2.08;;
74293;SDS011;64044;59.904;10.738;2023-07-29T00:31:02;3.65;;;2.45;;
74293;SDS011;64044;59.904;10.738;2023-07-29T00:33:28;4.43;;;2.60;;
74293;SDS011;64044;59.904;10.738;2023-07-29T00:35:54;4.47;;;2.78;;
74293;SDS011;64044;59.904;10.738;2023-07-29T00:38:19;5.28;;;2.92;;
74293;SDS011;64044;59.904;10.738;2023-07-29T00:40:45;3.60;;;2.25;;
74293;SDS011;64044;59.904;10.738;2023-07-29T00:43:11;4.30;;;3.05;;
74293;SDS011;64044;59.904;10.738;2023-07-29T00:45:36;7.55;;;2.92;;
74293;SDS011;64044;59.904;10.738;2023-07-29T00:48:03;5.78;;;2.72;;
74293;SDS011;64044;59.904;10.738;2023-07-29T00:50:30;5.68;;;2.50;;
74293;SDS011;64044;59.904;10.738;2023-07-29T00:52:57;5.53;;;2.67;;
74293;SDS011;64044;59.904;10.738;2023-07-29T00:55:23;5.47;;;2.80;;
74293;SDS011;64044;59.904;10.738;2023-07-29T00:57:49;4.80;;;2.75;;
74293;SDS011;64044;59.904;10.738;2023-07-29T01:00:18;4.70;;;2.30;;
74293;SDS011;64044;59.904;10.738;2023-07-29T01:02:44;17.85;;;3.40;;
74293;SDS011;64044;59.904;10.738;2023-07-29T01:05:11;7.07;;;3.13;;
74293;SDS011;64044;59.904;10.738;2023-07-29T01:07:44;4.63;;;2.53;;
74293;SDS011;64044;59.904;10.738;2023-07-29T01:16:00;3.95;;;2.35;;
74293;SDS011;64044;59.904;10.738;2023-07-29T01:18:31;5.40;;;2.45;;
74293;SDS011;64044;59.904;10.738;2023-07-29T01:20:59;4.63;;;2.30;;
74293;SDS011;64044;59.904;10.738;2023-07-29T01:23:34;4.20;;;2.47;;
74293;SDS011;64044;59.904;10.738;2023-07-29T01:26:01;3.88;;;2.50;;
74293;SDS011;64044;59.904;10.738;2023-07-29T01:28:28;5.10;;;2.95;;
74293;SDS011;64044;59.904;10.738;2023-07-29T01:31:13;5.75;;;2.50;;
74293;SDS011;64044;59.904;10.738;2023-07-29T01:33:48;4.20;;;2.53;;
74293;SDS011;64044;59.904;10.738;2023-07-29T01:36:42;3.25;;;2.63;;
74293;SDS011;64044;59.904;10.738;2023-07-29T01:39:10;5.85;;;2.85;;
74293;SDS011;64044;59.904;10.738;2023-07-29T01:41:37;6.65;;;2.70;;
74293;SDS011;64044;59.904;10.738;2023-07-29T01:44:04;7.38;;;2.55;;
74293;SDS011;64044;59.904;10.738;2023-07-29T01:46:32;6.85;;;2.60;;
74293;SDS011;64044;59.904;10.738;2023-07-29T01:48:58;7.32;;;3.05;;
74293;SDS011;64044;59.904;10.738;2023-07-29T01:51:24;7.90;;;2.92;;
74293;SDS011;64044;59.904;10.738;2023-07-29T01:53:50;6.57;;;2.15;;
74293;SDS011;64044;59.904;10.738;2023-07-29T01:56:16;5.82;;;2.60;;
74293;SDS011;64044;59.904;10.738;2023-07-29T01:58:41;3.88;;;2.22;;
74293;SDS011;64044;59.904;10.738;2023-07-29T02:01:07;5.82;;;2.33;;
74293;SDS011;64044;59.904;10.738;2023-07-29T02:03:33;3.58;;;2.35;;
74293;SDS011;64044;59.904;10.738;2023-07-29T02:05:58;3.38;;;2.25;;
74293;SDS011;64044;59.904;10.738;2023-07-29T02:08:24;2.75;;;2.10;;
74293;SDS011;64044;59.904;10.738;2023-07-29T02:10:49;3.22;;;2.30;;
74293;SDS011;64044;59.904;10.738;2023-07-29T02:13:15;5.85;;;2.70;;
74293;SDS011;64044;59.904;10.738;2023-07-29T02:15:41;4.55;;;2.03;;
74293;SDS011;64044;59.904;10.738;2023-07-29T02:18:07;3.63;;;2.53;;
74293;SDS011;64044;59.904;10.738;2023-07-29T02:20:32;3.30;;;2.22;;
74293;SDS011;64044;59.904;10.738;2023-07-29T02:22:58;5.38;;;2.40;;
74293;SDS011;64044;59.904;10.738;2023-07-29T02:25:24;5.68;;;2.83;;
74293;SDS011;64044;59.904;10.738;2023-07-29T02:27:49;4.28;;;2.60;;
74293;SDS011;64044;59.904;10.738;2023-07-29T02:30:15;4.30;;;2.38;;
74293;SDS011;64044;59.904;10.738;2023-07-29T02:32:41;4.20;;;2.70;;
74293;SDS011;64044;59.904;10.738;2023-07-29T02:35:07;3.83;;;2.13;;
74293;SDS011;64044;59.904;10.738;2023-07-29T02:37:33;4.45;;;2.42;;
74293;SDS011;64044;59.904;10.738;2023-07-29T02:39:58;5.13;;;2.42;;
74293;SDS011;64044;59.904;10.738;2023-07-29T02:42:25;6.13;;;2.83;;
74293;SDS011;64044;59.904;10.738;2023-07-29T02:44:51;5.53;;;2.67;;
74293;SDS011;64044;59.904;10.738;2023-07-29T02:47:16;4.35;;;2.30;;
74293;SDS011;64044;59.904;10.738;2023-07-29T02:49:42;6.32;;;2.60;;
74293;SDS011;64044;59.904;10.738;2023-07-29T02:52:08;5.03;;;2.55;;
74293;SDS011;64044;59.904;10.738;2023-07-29T02:54:33;4.20;;;2.50;;
74293;SDS011;64044;59.904;10.738;2023-07-29T02:56:59;3.97;;;2.83;;
74293;SDS011;64044;59.904;10.738;2023-07-29T02:59:25;3.75;;;2.53;;
74293;SDS011;64044;59.904;10.738;2023-07-29T03:01:51;4.07;;;2.58;;
74293;SDS011;64044;59.904;10.738;2023-07-29T03:04:18;5.75;;;2.70;;
74293;SDS011;64044;59.904;10.738;2023-07-29T03:06:44;4.85;;;2.58;;
74293;SDS011;64044;59.904;10.738;2023-07-29T03:09:09;4.20;;;2.67;;
74293;SDS011;64044;59.904;10.738;2023-07-29T03:11:35;3.50;;;2.20;;
74293;SDS011;64044;59.904;10.738;2023-07-29T03:14:01;3.85;;;2.38;;
74293;SDS011;64044;59.904;10.738;2023-07-29T03:16:27;3.97;;;2.20;;
74293;SDS011;64044;59.904;10.738;2023-07-29T03:18:52;5.05;;;2.72;;
74293;SDS011;64044;59.904;10.738;2023-07-29T03:21:18;3.08;;;2.30;;
74293;SDS011;64044;59.904;10.738;2023-07-29T03:23:44;4.70;;;2.10;;
74293;SDS011;64044;59.904;10.738;2023-07-29T03:26:09;4.75;;;2.80;;
74293;SDS011;64044;59.904;10.738;2023-07-29T03:28:36;4.53;;;2.30;;
74293;SDS011;64044;59.904;10.738;2023-07-29T03:31:06;3.63;;;2.30;;
74293;SDS011;64044;59.904;10.738;2023-07-29T03:33:32;2.70;;;2.40;;
74293;SDS011;64044;59.904;10.738;2023-07-29T03:35:58;5.07;;;2.75;;
74293;SDS011;64044;59.904;10.738;2023-07-29T03:38:23;5.90;;;3.40;;
74293;SDS011;64044;59.904;10.738;2023-07-29T03:40:50;7.70;;;3.20;;
74293;SDS011;64044;59.904;10.738;2023-07-29T03:43:16;4.88;;;3.05;;
74293;SDS011;64044;59.904;10.738;2023-07-29T03:45:41;5.30;;;2.95;;
74293;SDS011;64044;59.904;10.738;2023-07-29T03:48:07;6.07;;;3.65;;
74293;SDS011;64044;59.904;10.738;2023-07-29T03:50:34;6.35;;;3.15;;
74293;SDS011;64044;59.904;10.738;2023-07-29T03:53:00;6.00;;;3.40;;
74293;SDS011;64044;59.904;10.738;2023-07-29T03:55:27;3.50;;;2.40;;
74293;SDS011;64044;59.904;10.738;2023-07-29T03:57:55;5.88;;;3.10;;
74293;SDS011;64044;59.904;10.738;2023-07-29T04:00:24;3.67;;;2.53;;
74293;SDS011;64044;59.904;10.738;2023-07-29T04:02:50;6.75;;;2.85;;
74293;SDS011;64044;59.904;10.738;2023-07-29T04:05:16;5.72;;;3.10;;
74293;SDS011;64044;59.904;10.738;2023-07-29T04:07:41;6.13;;;2.80;;
74293;SDS011;64044;59.904;10.738;2023-07-29T04:10:08;8.63;;;3.03;;
74293;SDS011;64044;59.904;10.738;2023-07-29T04:12:34;5.10;;;2.67;;
74293;SDS011;64044;59.904;10.738;2023-07-29T04:14:59;4.47;;;2.92;;
74293;SDS011;64044;59.904;10.738;2023-07-29T04:17:25;4.82;;;2.70;;
74293;SDS011;64044;59.904;10.738;2023-07-29T04:19:51;5.75;;;3.38;;
74293;SDS011;64044;59.904;10.738;2023-07-29T04:22:16;4.57;;;2.67;;
74293;SDS011;64044;59.904;10.738;2023-07-29T04:24:42;5.60;;;3.25;;
74293;SDS011;64044;59.904;10.738;2023-07-29T04:27:08;5.30;;;2.85;;
74293;SDS011;64044;59.904;10.738;2023-07-29T04:29:34;4.75;;;3.10;;
74293;SDS011;64044;59.904;10.738;2023-07-29T04:32:01;9.60;;;3.30;;
74293;SDS011;64044;59.904;10.738;2023-07-29T04:34:27;4.68;;;2.70;;
74293;SDS011;64044;59.904;10.738;2023-07-29T04:36:52;4.32;;;2.80;;
74293;SDS011;64044;59.904;10.738;2023-07-29T04:39:18;5.63;;;2.75;;
74293;SDS011;64044;59.904;10.738;2023-07-29T04:41:44;4.97;;;3.03;;
74293;SDS011;64044;59.904;10.738;2023-07-29T04:44:09;4.95;;;3.10;;
74293;SDS011;64044;59.904;10.738;2023-07-29T04:46:35;4.63;;;2.88;;
74293;SDS011;64044;59.904;10.738;2023-07-29T04:49:01;5.28;;;2.95;;
74293;SDS011;64044;59.904;10.738;2023-07-29T04:51:27;6.30;;;3.80;;
74293;SDS011;64044;59.904;10.738;2023-07-29T04:53:53;9.40;;;4.00;;
74293;SDS011;64044;59.904;10.738;2023-07-29T04:56:19;6.25;;;3.60;;
74293;SDS011;64044;59.904;10.738;2023-07-29T04:58:45;5.90;;;3.88;;
74293;SDS011;64044;59.904;10.738;2023-07-29T05:01:10;5.15;;;3.33;;
74293;SDS011;64044;59.904;10.738;2023-07-29T05:03:36;7.78;;;3.95;;
74293;SDS011;64044;59.904;10.738;2023-07-29T05:06:03;6.07;;;3.47;;
74293;SDS011;64044;59.904;10.738;2023-07-29T05:08:29;8.07;;;4.22;;
74293;SDS011;64044;59.904;10.738;2023-07-29T05:10:54;4.60;;;3.50;;
74293;SDS011;64044;59.904;10.738;2023-07-29T05:13:21;5.38;;;2.88;;
74293;SDS011;64044;59.904;10.738;2023-07-29T05:15:47;4.70;;;2.70;;
74293;SDS011;64044;59.904;10.738;2023-07-29T05:18:39;5.70;;;3.63;;
74293;SDS011;64044;59.904;10.738;2023-07-29T05:21:05;5.95;;;2.88;;
74293;SDS011;64044;59.904;10.738;2023-07-29T05:23:30;4.97;;;3.08;;
74293;SDS011;64044;59.904;10.738;2023-07-29T05:25:56;4.00;;;2.67;;
74293;SDS011;64044;59.904;10.738;2023-07-29T05:28:22;4.85;;;3.03;;
74293;SDS011;64044;59.904;10.738;2023-07-29T05:30:47;4.53;;;2.83;;
74293;SDS011;64044;59.904;10.738;2023-07-29T05:33:13;5.95;;;3.15;;
74293;SDS011;64044;59.904;10.738;2023-07-29T05:35:39;5.13;;;3.10;;
74293;SDS011;64044;59.904;10.738;2023-07-29T05:38:04;7.20;;;2.95;;
74293;SDS011;64044;59.904;10.738;2023-07-29T05:40:31;7.78;;;3.10;;
74293;SDS011;64044;59.904;10.738;2023-07-29T05:42:57;4.80;;;2.70;;
74293;SDS011;64044;59.904;10.738;2023-07-29T05:45:23;4.55;;;2.38;;
74293;SDS011;64044;59.904;10.738;2023-07-29T05:47:48;6.35;;;2.97;;
74293;SDS011;64044;59.904;10.738;2023-07-29T05:50:14;4.70;;;2.22;;
74293;SDS011;64044;59.904;10.738;2023-07-29T05:52:43;5.47;;;2.80;;
74293;SDS011;64044;59.904;10.738;2023-07-29T05:55:09;7.50;;;3.40;;
74293;SDS011;64044;59.904;10.738;2023-07-29T05:57:34;5.90;;;3.00;;
74293;SDS011;64044;59.904;10.738;2023-07-29T06:00:00;8.43;;;3.10;;
74293;SDS011;64044;59.904;10.738;2023-07-29T06:02:26;7.63;;;3.83;;
74293;SDS011;64044;59.904;10.738;2023-07-29T06:04:51;4.72;;;2.88;;
74293;SDS011;64044;59.904;10.738;2023-07-29T06:07:17;6.05;;;2.88;;
74293;SDS011;64044;59.904;10.738;2023-07-29T06:09:43;3.08;;;2.60;;
74293;SDS011;64044;59.904;10.738;2023-07-29T06:12:08;4.13;;;2.50;;
74293;SDS011;64044;59.904;10.738;2023-07-29T06:14:34;4.75;;;2.75;;
74293;SDS011;64044;59.904;10.738;2023-07-29T06:17:00;4.18;;;3.10;;
74293;SDS011;64044;59.904;10.738;2023-07-29T06:19:25;3.03;;;2.42;;
74293;SDS011;64044;59.904;10.738;2023-07-29T06:21:51;3.13;;;2.20;;
74293;SDS011;64044;59.904;10.738;2023-07-29T06:24:20;5.32;;;2.95;;
74293;SDS011;64044;59.904;10.738;2023-07-29T06:26:46;4.80;;;2.55;;
74293;SDS011;64044;59.904;10.738;2023-07-29T06:29:12;6.53;;;3.53;;
74293;SDS011;64044;59.904;10.738;2023-07-29T06:31:37;3.92;;;2.47;;
74293;SDS011;64044;59.904;10.738;2023-07-29T06:34:03;4.40;;;2.65;;
74293;SDS011;64044;59.904;10.738;2023-07-29T06:36:28;3.38;;;2.33;;
74293;SDS011;64044;59.904;10.738;2023-07-29T06:38:54;3.70;;;2.67;;
74293;SDS011;64044;59.904;10.738;2023-07-29T06:41:20;3.65;;;2.45;;
74293;SDS011;64044;59.904;10.738;2023-07-29T06:43:45;4.82;;;2.40;;
74293;SDS011;64044;59.904;10.738;2023-07-29T06:46:11;3.72;;;2.55;;
74293;SDS011;64044;59.904;10.738;2023-07-29T06:48:37;4.43;;;2.70;;
74293;SDS011;64044;59.904;10.738;2023-07-29T06:51:03;2.42;;;2.20;;
74293;SDS011;64044;59.904;10.738;2023-07-29T06:53:28;3.03;;;2.38;;
74293;SDS011;64044;59.904;10.738;2023-07-29T06:55:54;3.78;;;2.30;;
74293;SDS011;64044;59.904;10.738;2023-07-29T06:58:21;2.58;;;2.00;;
74293;SDS011;64044;59.904;10.738;2023-07-29T07:00:47;2.53;;;2.08;;
74293;SDS011;64044;59.904;10.738;2023-07-29T07:03:12;3.75;;;2.22;;
74293;SDS011;64044;59.904;10.738;2023-07-29T07:05:38;4.32;;;2.95;;
74293;SDS011;64044;59.904;10.738;2023-07-29T07:08:04;3.58;;;2.13;;
74293;SDS011;64044;59.904;10.738;2023-07-29T07:10:29;6.40;;;2.88;;
74293;SDS011;64044;59.904;10.738;2023-07-29T07:12:55;4.32;;;2.83;;
74293;SDS011;64044;59.904;10.738;2023-07-29T07:15:21;4.22;;;3.08;;
74293;SDS011;64044;59.904;10.738;2023-07-29T07:17:47;5.28;;;2.90;;
74293;SDS011;64044;59.904;10.738;2023-07-29T07:20:12;5.97;;;2.97;;
74293;SDS011;64044;59.904;10.738;2023-07-29T07:22:38;5.13;;;2.33;;
74293;SDS011;64044;59.904;10.738;2023-07-29T07:25:04;3.88;;;2.45;;
74293;SDS011;64044;59.904;10.738;2023-07-29T07:27:30;4.15;;;2.30;;
74293;SDS011;64044;59.904;10.738;2023-07-29T07:29:56;3.88;;;2.42;;
74293;SDS011;64044;59.904;10.738;2023-07-29T07:32:21;3.05;;;2.47;;
74293;SDS011;64044;59.904;10.738;2023-07-29T07:34:47;3.60;;;2.42;;
74293;SDS011;64044;59.904;10.738;2023-07-29T07:37:13;5.25;;;2.17;;
74293;SDS011;64044;59.904;10.738;2023-07-29T07:39:38;2.47;;;2.25;;
74293;SDS011;64044;59.904;10.738;2023-07-29T07:42:04;3.85;;;1.95;;
74293;SDS011;64044;59.904;10.738;2023-07-29T07:44:30;3.38;;;2.80;;
74293;SDS011;64044;59.904;10.738;2023-07-29T07:46:56;3.03;;;2.03;;
74293;SDS011;64044;59.904;10.738;2023-07-29T07:49:21;7.10;;;2.53;;
74293;SDS011;64044;59.904;10.738;2023-07-29T07:51:48;4.30;;;2.33;;
74293;SDS011;64044;59.904;10.738;2023-07-29T07:54:13;2.85;;;2.20;;
74293;SDS011;64044;59.904;10.738;2023-07-29T07:56:39;3.45;;;2.50;;
74293;SDS011;64044;59.904;10.738;2023-07-29T07:59:05;4.13;;;2.20;;
74293;SDS011;64044;59.904;10.738;2023-07-29T08:01:39;3.03;;;2.40;;
74293;SDS011;64044;59.904;10.738;2023-07-29T08:04:05;2.38;;;2.17;;
74293;SDS011;64044;59.904;10.738;2023-07-29T08:06:32;3.70;;;2.22;;
74293;SDS011;64044;59.904;10.738;2023-07-29T08:08:58;5.53;;;2.67;;
74293;SDS011;64044;59.904;10.738;2023-07-29T08:11:25;3.55;;;2.47;;
74293;SDS011;64044;59.904;10.738;2023-07-29T08:13:51;2.75;;;2.28;;
74293;SDS011;64044;59.904;10.738;2023-07-29T08:16:17;3.25;;;2.22;;
74293;SDS011;64044;59.904;10.738;2023-07-29T08:18:42;3.85;;;2.40;;
74293;SDS011;64044;59.904;10.738;2023-07-29T08:21:09;2.72;;;2.08;;
74293;SDS011;64044;59.904;10.738;2023-07-29T08:23:35;4.63;;;2.30;;
74293;SDS011;64044;59.904;10.738;2023-07-29T08:26:04;3.45;;;2.40;;
74293;SDS011;64044;59.904;10.738;2023-07-29T08:28:31;4.38;;;2.28;;
74293;SDS011;64044;59.904;10.738;2023-07-29T08:30:59;2.67;;;2.33;;
74293;SDS011;64044;59.904;10.738;2023-07-29T08:33:25;3.75;;;2.67;;
74293;SDS011;64044;59.904;10.738;2023-07-29T08:35:51;2.70;;;2.28;;
74293;SDS011;64044;59.904;10.738;2023-07-29T08:38:17;3.47;;;2.17;;
74293;SDS011;64044;59.904;10.738;2023-07-29T08:40:52;2.15;;;1.92;;
74293;SDS011;64044;59.904;10.738;2023-07-29T08:43:23;3.75;;;2.70;;
74293;SDS011;64044;59.904;10.738;2023-07-29T08:45:57;2.65;;;2.10;;
74293;SDS011;64044;59.904;10.738;2023-07-29T08:48:24;4.13;;;2.50;;
74293;SDS011;64044;59.904;10.738;2023-07-29T08:50:55;3.40;;;2.47;;
74293;SDS011;64044;59.904;10.738;2023-07-29T08:53:22;3.78;;;2.45;;
74293;SDS011;64044;59.904;10.738;2023-07-29T08:55:48;6.50;;;2.65;;
74293;SDS011;64044;59.904;10.738;2023-07-29T08:58:15;4.25;;;1.90;;
74293;SDS011;64044;59.904;10.738;2023-07-29T09:00:41;3.63;;;2.15;;
74293;SDS011;64044;59.904;10.738;2023-07-29T09:03:07;3.38;;;2.33;;
74293;SDS011;64044;59.904;10.738;2023-07-29T09:05:33;4.25;;;2.45;;
74293;SDS011;64044;59.904;10.738;2023-07-29T09:07:59;3.00;;;2.50;;
74293;SDS011;64044;59.904;10.738;2023-07-29T09:10:28;4.70;;;2.60;;
74293;SDS011;64044;59.904;10.738;2023-07-29T09:12:53;4.30;;;2.63;;
74293;SDS011;64044;59.904;10.738;2023-07-29T09:15:27;3.28;;;2.40;;
74293;SDS011;64044;59.904;10.738;2023-07-29T09:17:55;4.68;;;2.58;;
74293;SDS011;64044;59.904;10.738;2023-07-29T09:20:27;2.85;;;2.47;;
74293;SDS011;64044;59.904;10.738;2023-07-29T09:22:54;5.30;;;2.83;;
74293;SDS011;64044;59.904;10.738;2023-07-29T09:25:24;4.32;;;2.22;;
74293;SDS011;64044;59.904;10.738;2023-07-29T09:27:50;3.37;;;2.60;;
74293;SDS011;64044;59.904;10.738;2023-07-29T09:30:16;4.28;;;2.63;;
74293;SDS011;64044;59.904;10.738;2023-07-29T09:32:42;8.80;;;2.95;;
74293;SDS011;64044;59.904;10.738;2023-07-29T09:35:11;3.95;;;2.72;;
74293;SDS011;64044;59.904;10.738;2023-07-29T09:37:38;7.22;;;2.78;;
74293;SDS011;64044;59.904;10.738;2023-07-29T09:40:05;7.05;;;3.13;;
74293;SDS011;64044;59.904;10.738;2023-07-29T09:42:31;3.00;;;2.40;;
74293;SDS011;64044;59.904;10.738;2023-07-29T09:44:58;2.70;;;2.33;;
74293;SDS011;64044;59.904;10.738;2023-07-29T09:47:24;5.22;;;3.05;;
74293;SDS011;64044;59.904;10.738;2023-07-29T09:49:51;3.58;;;2.35;;
74293;SDS011;64044;59.904;10.738;2023-07-29T09:52:21;4.60;;;2.55;;
74293;SDS011;64044;59.904;10.738;2023-07-29T09:54:48;4.75;;;2.80;;
74293;SDS011;64044;59.904;10.738;2023-07-29T09:57:14;5.88;;;3.20;;
74293;SDS011;64044;59.904;10.738;2023-07-29T09:59:42;5.55;;;3.33;;
74293;SDS011;64044;59.904;10.738;2023-07-29T10:02:09;5.53;;;2.90;;
74293;SDS011;64044;59.904;10.738;2023-07-29T10:04:43;3.92;;;2.95;;
74293;SDS011;64044;59.904;10.738;2023-07-29T10:07:11;5.63;;;3.30;;
74293;SDS011;64044;59.904;10.738;2023-07-29T10:09:40;7.90;;;3.30;;
74293;SDS011;64044;59.904;10.738;2023-07-29T10:12:06;5.53;;;2.95;;
74293;SDS011;64044;59.904;10.738;2023-07-29T10:14:32;4.97;;;3.05;;
74293;SDS011;64044;59.904;10.738;2023-07-29T10:16:59;5.13;;;3.38;;
74293;SDS011;64044;59.904;10.738;2023-07-29T10:19:25;6.32;;;4.25;;
74293;SDS011;64044;59.904;10.738;2023-07-29T10:21:51;5.55;;;3.67;;
74293;SDS011;64044;59.904;10.738;2023-07-29T10:24:22;6.13;;;3.30;;
74293;SDS011;64044;59.904;10.738;2023-07-29T10:26:54;4.25;;;3.00;;
74293;SDS011;64044;59.904;10.738;2023-07-29T10:29:23;3.88;;;2.70;;
74293;SDS011;64044;59.904;10.738;2023-07-29T10:31:53;6.78;;;2.97;;
74293;SDS011;64044;59.904;10.738;2023-07-29T10:34:22;4.63;;;2.78;;
74293;SDS011;64044;59.904;10.738;2023-07-29T10:36:49;6.03;;;2.92;;
74293;SDS011;64044;59.904;10.738;2023-07-29T10:39:17;6.97;;;3.00;;
74293;SDS011;64044;59.904;10.738;2023-07-29T10:47:16;5.32;;;2.97;;
74293;SDS011;64044;59.904;10.738;2023-07-29T10:49:43;5.57;;;2.60;;
74293;SDS011;64044;59.904;10.738;2023-07-29T10:52:13;6.10;;;2.90;;
74293;SDS011;64044;59.904;10.738;2023-07-29T10:54:43;4.53;;;2.90;;
74293;SDS011;64044;59.904;10.738;2023-07-29T10:57:13;4.63;;;2.88;;
74293;SDS011;64044;59.904;10.738;2023-07-29T10:59:40;4.50;;;2.80;;
74293;SDS011;64044;59.904;10.738;2023-07-29T11:02:17;4.20;;;2.75;;
74293;SDS011;64044;59.904;10.738;2023-07-29T11:04:48;4.72;;;2.92;;
74293;SDS011;64044;59.904;10.738;2023-07-29T11:15:04;4.97;;;2.65;;
74293;SDS011;64044;59.904;10.738;2023-07-29T11:17:52;4.60;;;2.53;;
74293;SDS011;64044;59.904;10.738;2023-07-29T11:20:23;5.07;;;3.05;;
74293;SDS011;64044;59.904;10.738;2023-07-29T11:22:50;8.88;;;2.85;;
74293;SDS011;64044;59.904;10.738;2023-07-29T11:25:18;6.18;;;3.15;;
74293;SDS011;64044;59.904;10.738;2023-07-29T11:27:44;5.50;;;3.47;;
74293;SDS011;64044;59.904;10.738;2023-07-29T11:30:11;5.72;;;3.08;;
74293;SDS011;64044;59.904;10.738;2023-07-29T11:32:40;6.10;;;2.65;;
74293;SDS011;64044;59.904;10.738;2023-07-29T11:35:07;4.88;;;2.58;;
74293;SDS011;64044;59.904;10.738;2023-07-29T11:37:36;4.93;;;2.72;;
74293;SDS011;64044;59.904;10.738;2023-07-29T11:40:02;6.63;;;3.13;;
74293;SDS011;64044;59.904;10.738;2023-07-29T11:42:31;5.22;;;3.13;;
74293;SDS011;64044;59.904;10.738;2023-07-29T11:44:58;3.88;;;2.80;;
74293;SDS011;64044;59.904;10.738;2023-07-29T11:47:24;4.50;;;2.75;;
74293;SDS011;64044;59.904;10.738;2023-07-29T11:49:50;3.75;;;2.60;;
74293;SDS011;64044;59.904;10.738;2023-07-29T11:52:16;3.58;;;2.30;;
74293;SDS011;64044;59.904;10.738;2023-07-29T11:54:44;4.63;;;2.50;;
74293;SDS011;64044;59.904;10.738;2023-07-29T11:57:11;4.60;;;2.58;;
74293;SDS011;64044;59.904;10.738;2023-07-29T11:59:39;5.35;;;2.70;;
74293;SDS011;64044;59.904;10.738;2023-07-29T12:02:05;4.20;;;2.47;;
74293;SDS011;64044;59.904;10.738;2023-07-29T12:04:35;4.78;;;2.38;;
74293;SDS011;64044;59.904;10.738;2023-07-29T12:07:02;4.57;;;2.65;;
74293;SDS011;64044;59.904;10.738;2023-07-29T12:09:28;8.10;;;3.00;;
74293;SDS011;64044;59.904;10.738;2023-07-29T12:11:55;6.32;;;2.70;;
74293;SDS011;64044;59.904;10.738;2023-07-29T12:14:21;4.55;;;2.25;;
74293;SDS011;64044;59.904;10.738;2023-07-29T12:16:50;4.30;;;2.72;;
74293;SDS011;64044;59.904;10.738;2023-07-29T12:19:17;8.18;;;2.83;;
74293;SDS011;64044;59.904;10.738;2023-07-29T12:21:43;6.03;;;3.10;;
74293;SDS011;64044;59.904;10.738;2023-07-29T12:24:09;3.72;;;2.83;;
74293;SDS011;64044;59.904;10.738;2023-07-29T12:26:37;4.57;;;2.97;;
74293;SDS011;64044;59.904;10.738;2023-07-29T12:29:12;4.00;;;2.63;;
74293;SDS011;64044;59.904;10.738;2023-07-29T12:31:39;4.00;;;2.70;;
74293;SDS011;64044;59.904;10.738;2023-07-29T12:34:04;4.85;;;2.85;;
74293;SDS011;64044;59.904;10.738;2023-07-29T12:39:21;3.13;;;2.30;;
74293;SDS011;64044;59.904;10.738;2023-07-29T12:41:49;3.42;;;2.45;;
74293;SDS011;64044;59.904;10.738;2023-07-29T12:44:16;4.07;;;2.65;;
74293;SDS011;64044;59.904;10.738;2023-07-29T12:46:43;3.38;;;2.47;;
74293;SDS011;64044;59.904;10.738;2023-07-29T12:49:09;4.90;;;2.65;;
74293;SDS011;64044;59.904;10.738;2023-07-29T12:51:35;4.50;;;2.67;;
74293;SDS011;64044;59.904;10.738;2023-07-29T12:54:02;3.63;;;2.35;;
74293;SDS011;64044;59.904;10.738;2023-07-29T12:56:29;4.13;;;2.03;;
74293;SDS011;64044;59.904;10.738;2023-07-29T12:58:56;4.25;;;2.03;;
74293;SDS011;64044;59.904;10.738;2023-07-29T13:01:23;3.70;;;2.10;;
74293;SDS011;64044;59.904;10.738;2023-07-29T13:03:49;3.33;;;2.22;;
74293;SDS011;64044;59.904;10.738;2023-07-29T13:06:15;4.00;;;2.38;;
74293;SDS011;64044;59.904;10.738;2023-07-29T13:08:41;4.07;;;2.42;;
74293;SDS011;64044;59.904;10.738;2023-07-29T13:11:07;3.65;;;2.30;;
74293;SDS011;64044;59.904;10.738;2023-07-29T13:13:33;3.30;;;2.25;;
74293;SDS011;64044;59.904;10.738;2023-07-29T13:15:59;3.15;;;2.00;;
74293;SDS011;64044;59.904;10.738;2023-07-29T13:18:25;4.43;;;2.70;;
74293;SDS011;64044;59.904;10.738;2023-07-29T13:20:51;2.92;;;2.30;;
74293;SDS011;64044;59.904;10.738;2023-07-29T13:23:16;4.18;;;2.47;;
74293;SDS011;64044;59.904;10.738;2023-07-29T13:25:42;3.33;;;2.30;;
74293;SDS011;64044;59.904;10.738;2023-07-29T13:28:09;4.70;;;2.50;;
74293;SDS011;64044;59.904;10.738;2023-07-29T13:30:35;4.10;;;2.00;;
74293;SDS011;64044;59.904;10.738;2023-07-29T13:33:01;3.35;;;2.08;;
74293;SDS011;64044;59.904;10.738;2023-07-29T13:35:27;2.55;;;2.35;;
74293;SDS011;64044;59.904;10.738;2023-07-29T13:37:53;3.35;;;1.88;;
74293;SDS011;64044;59.904;10.738;2023-07-29T13:40:19;2.60;;;2.13;;
74293;SDS011;64044;59.904;10.738;2023-07-29T13:42:44;3.55;;;2.40;;
74293;SDS011;64044;59.904;10.738;2023-07-29T13:45:10;5.00;;;2.55;;
74293;SDS011;64044;59.904;10.738;2023-07-29T13:47:36;2.38;;;1.95;;
74293;SDS011;64044;59.904;10.738;2023-07-29T13:50:02;2.80;;;2.08;;
74293;SDS011;64044;59.904;10.738;2023-07-29T13:52:28;3.75;;;2.28;;
74293;SDS011;64044;59.904;10.738;2023-07-29T13:54:54;3.28;;;2.42;;
74293;SDS011;64044;59.904;10.738;2023-07-29T13:57:19;2.38;;;2.00;;
74293;SDS011;64044;59.904;10.738;2023-07-29T13:59:45;2.13;;;1.92;;
74293;SDS011;64044;59.904;10.738;2023-07-29T14:02:11;4.15;;;2.40;;
74293;SDS011;64044;59.904;10.738;2023-07-29T14:04:37;2.38;;;1.90;;
74293;SDS011;64044;59.904;10.738;2023-07-29T14:07:02;2.83;;;2.22;;
74293;SDS011;64044;59.904;10.738;2023-07-29T14:09:28;2.33;;;2.00;;
74293;SDS011;64044;59.904;10.738;2023-07-29T14:11:54;3.90;;;2.10;;
74293;SDS011;64044;59.904;10.738;2023-07-29T14:14:20;2.78;;;1.85;;
74293;SDS011;64044;59.904;10.738;2023-07-29T14:16:46;2.67;;;2.03;;
74293;SDS011;64044;59.904;10.738;2023-07-29T14:19:12;2.25;;;1.95;;
74293;SDS011;64044;59.904;10.738;2023-07-29T14:21:38;3.08;;;1.70;;
74293;SDS011;64044;59.904;10.738;2023-07-29T14:24:05;3.20;;;2.13;;
74293;SDS011;64044;59.904;10.738;2023-07-29T14:26:31;1.60;;;1.50;;
74293;SDS011;64044;59.904;10.738;2023-07-29T14:28:56;1.70;;;1.60;;
74293;SDS011;64044;59.904;10.738;2023-07-29T14:31:22;2.25;;;2.00;;
74293;SDS011;64044;59.904;10.738;2023-07-29T14:33:48;2.28;;;1.63;;
74293;SDS011;64044;59.904;10.738;2023-07-29T14:36:15;3.20;;;1.92;;
74293;SDS011;64044;59.904;10.738;2023-07-29T14:38:41;2.17;;;1.65;;
74293;SDS011;64044;59.904;10.738;2023-07-29T14:41:07;2.00;;;1.70;;
74293;SDS011;64044;59.904;10.738;2023-07-29T14:43:33;1.60;;;1.50;;
74293;SDS011;64044;59.904;10.738;2023-07-29T14:45:59;2.00;;;1.75;;
74293;SDS011;64044;59.904;10.738;2023-07-29T14:48:25;1.90;;;1.60;;
74293;SDS011;64044;59.904;10.738;2023-07-29T14:50:51;2.20;;;1.95;;
74293;SDS011;64044;59.904;10.738;2023-07-29T14:53:17;3.30;;;1.98;;